Time;durP1;ratioP1;P1;durP2;ratioP2;P2;SDS_P1;SDS_P2;PMS_P1;PMS_P2;Temp;Humidity;BMP_temperature;BMP_pressure;BME280_temperature;BME280_humidity;BME280_pressure;Samples;Min_cycle;Max_cycle;Signal;HPM_P1;HPM_P2
2021/10/23 00:01:47;;;;;;;;;;;;;;;;;;5047594;28;19929;-56
2021/10/23 00:04:14;;;;;;;;;;;;;;;;;;5048264;28;19925;-55
2021/10/23 00:06:41;;;;;;;;;;;;;;;;;;5044242;28;19929;-58
2021/10/23 00:09:08;;;;;;;;;;;;;;;;;;5046584;28;20584;-59
2021/10/23 00:11:35;;;;;;;;;;;;;;;;;;5045793;28;19925;-56
2021/10/23 00:14:02;;;;;;;;;;;;;;;;;;5044876;28;20011;-56
2021/10/23 00:16:29;;;;;;;;;;;;;;;;;;5043543;28;19932;-57
2021/10/23 00:18:56;;;;;;;;;;;;;;;;;;5045472;28;19925;-54
2021/10/23 00:21:23;;;;;;;;;;;;;;;;;;5043828;28;20286;-54
2021/10/23 00:23:50;;;;;;;;;;;;;;;;;;5046233;28;20023;-56
2021/10/23 00:26:17;;;;;;;;;;;;;;;;;;5048047;28;19925;-57
2021/10/23 00:28:44;;;;;;;;;;;;;;;;;;5045838;28;19925;-58
2021/10/23 00:31:11;;;;;;;;;;;;;;;;;;5044026;28;20032;-58
2021/10/23 00:33:39;;;;;;;;;;;;;;;;;;5040614;28;19929;-57
2021/10/23 00:36:06;;;;;;;;;;;;;;;;;;5044448;28;19925;-58
2021/10/23 00:38:33;;;;;;;;;;;;;;;;;;5047275;28;20384;-59
2021/10/23 00:41:00;;;;;;;;;;;;;;;;;;5044793;28;20030;-57
2021/10/23 00:43:27;;;;;;;;;;;;;;;;;;5042993;28;19929;-57
2021/10/23 00:45:54;;;;;;;;;;;;;;;;;;5045646;28;20469;-55
2021/10/23 00:48:21;;;;;;;;;;;;;;;;;;5046965;28;19924;-57
2021/10/23 00:50:48;;;;;;;;;;;;;;;;;;5044173;28;19933;-58
2021/10/23 00:53:15;;;;;;;;;;;;;;;;;;5049456;28;19928;-57
2021/10/23 00:55:42;;;;;;;;;;;;;;;;;;5043618;28;19936;-59
2021/10/23 00:58:09;;;;;;;;;;;;;;;;;;5040020;28;19924;-55
2021/10/23 01:00:36;;;;;;;;;;;;;;;;;;5035617;28;19932;-59
2021/10/23 01:03:03;;;;;;;;;;;;;;;;;;5049331;28;19931;-59
2021/10/23 01:05:30;;;;;;;;;;;;;;;;;;5043961;28;19972;-59
2021/10/23 01:07:57;;;;;;;;;;;;;;;;;;5043762;28;20027;-58
2021/10/23 01:10:24;;;;;;;;;;;;;;;;;;5040431;28;19925;-59
2021/10/23 01:12:51;;;;;;;;;;;;;;;;;;5042831;28;20304;-58
2021/10/23 01:15:18;;;;;;;;;;;;;;;;;;5044261;28;20297;-58
2021/10/23 01:17:45;;;;;;;;;;;;;;;;;;5044882;28;19933;-59
2021/10/23 01:20:12;;;;;;;;;;;;;;;;;;5040516;28;19934;-59
2021/10/23 01:22:39;;;;;;;;;;;;;;;;;;5040203;28;20373;-58
2021/10/23 01:25:06;;;;;;;;;;;;;;;;;;5047509;28;20353;-59
2021/10/23 01:27:32;;;;;;;;;;;;;;;;;;5045464;28;19932;-59
2021/10/23 01:29:59;;;;;;;;;;;;;;;;;;5041358;28;19947;-57
2021/10/23 01:32:26;;;;;;;;;;;;;;;;;;5044664;28;19931;-59
2021/10/23 01:34:53;;;;;;;;;;;;;;;;;;5043955;28;19929;-57
2021/10/23 01:37:20;;;;;;;;;;;;;;;;;;5045560;28;19925;-59
2021/10/23 01:39:47;;;;;;;;;;;;;;;;;;5051216;28;19940;-58
2021/10/23 01:42:14;;;;;;;;;;;;;;;;;;5047012;28;19972;-58
2021/10/23 01:44:41;;;;;;;;;;;;;;;;;;5044747;28;19933;-59
2021/10/23 01:47:08;;;;;;;;;;;;;;;;;;5045365;28;19924;-55
2021/10/23 01:49:35;;;;;;;;;;;;;;;;;;5048070;28;19935;-58
2021/10/23 01:52:02;;;;;;;;;;;;;;;;;;5046075;28;20044;-59
2021/10/23 01:54:29;;;;;;;;;;;;;;;;;;5043874;28;19929;-59
2021/10/23 01:56:56;;;;;;;;;;;;;;;;;;5047029;28;19931;-59
2021/10/23 01:59:23;;;;;;;;;;;;;;;;;;5047003;28;19925;-56
2021/10/23 02:01:50;;;;;;;;;;;;;;;;;;5044597;28;19925;-59
2021/10/23 02:04:17;;;;;;;;;;;;;;;;;;5045494;28;19929;-58
2021/10/23 02:06:44;;;;;;;;;;;;;;;;;;5045076;28;19932;-59
2021/10/23 02:09:11;;;;;;;;;;;;;;;;;;5046403;28;19933;-59
2021/10/23 02:11:38;;;;;;;;;;;;;;;;;;5045175;28;19929;-59
2021/10/23 02:14:05;;;;;;;;;;;;;;;;;;5043938;28;20404;-57
2021/10/23 02:16:32;;;;;;;;;;;;;;;;;;5050355;28;20349;-56
2021/10/23 02:18:59;;;;;;;;;;;;;;;;;;5049892;28;19952;-59
2021/10/23 02:21:26;;;;;;;;;;;;;;;;;;5044468;28;19925;-60
2021/10/23 02:23:53;;;;;;;;;;;;;;;;;;5046634;28;19925;-54
2021/10/23 02:26:20;;;;;;;;;;;;;;;;;;5048894;28;19925;-57
2021/10/23 02:28:47;;;;;;;;;;;;;;;;;;5049890;28;19936;-57
2021/10/23 02:31:14;;;;;;;;;;;;;;;;;;5049118;28;19929;-57
2021/10/23 02:33:40;;;;;;;;;;;;;;;;;;5046770;28;19929;-57
2021/10/23 02:36:07;;;;;;;;;;;;;;;;;;5048171;28;19925;-58
2021/10/23 02:38:34;;;;;;;;;;;;;;;;;;5049559;28;20011;-57
2021/10/23 02:41:01;;;;;;;;;;;;;;;;;;5046425;28;19925;-58
2021/10/23 02:43:28;;;;;;;;;;;;;;;;;;5047104;28;20304;-59
2021/10/23 02:45:55;;;;;;;;;;;;;;;;;;5044769;28;19925;-59
2021/10/23 02:48:22;;;;;;;;;;;;;;;;;;5049128;28;19925;-57
2021/10/23 02:50:49;;;;;;;;;;;;;;;;;;5049591;28;19931;-58
2021/10/23 02:53:16;;;;;;;;;;;;;;;;;;5044062;28;19925;-58
2021/10/23 02:55:43;;;;;;;;;;;;;;;;;;5044413;28;20415;-58
2021/10/23 02:58:11;;;;;;;;;;;;;;;;;;5041281;28;19925;-59
2021/10/23 03:00:38;;;;;;;;;;;;;;;;;;5045395;28;19929;-59
2021/10/23 03:03:05;;;;;;;;;;;;;;;;;;5044801;28;20312;-59
2021/10/23 03:05:32;;;;;;;;;;;;;;;;;;5048669;28;19935;-58
2021/10/23 03:07:59;;;;;;;;;;;;;;;;;;5048732;28;19925;-58
2021/10/23 03:10:26;;;;;;;;;;;;;;;;;;5046506;28;20368;-59
2021/10/23 03:12:53;;;;;;;;;;;;;;;;;;5043599;28;19936;-60
2021/10/23 03:15:20;;;;;;;;;;;;;;;;;;5044197;28;19929;-58
2021/10/23 03:17:46;;;;;;;;;;;;;;;;;;5046894;28;19931;-59
2021/10/23 03:20:13;;;;;;;;;;;;;;;;;;5044487;28;19925;-58
2021/10/23 03:22:40;;;;;;;;;;;;;;;;;;5043565;28;19929;-56
2021/10/23 03:25:07;;;;;;;;;;;;;;;;;;5048473;28;19924;-56
2021/10/23 03:27:34;;;;;;;;;;;;;;;;;;5049056;28;20365;-58
2021/10/23 03:30:01;;;;;;;;;;;;;;;;;;5045519;28;20407;-58
2021/10/23 03:32:28;;;;;;;;;;;;;;;;;;5050990;28;19929;-58
2021/10/23 03:34:59;;;;;;;;;;;;;;;;;;5048612;28;19925;-56
2021/10/23 03:37:26;;;;;;;;;;;;;;;;;;5043682;28;19925;-57
2021/10/23 03:39:53;;;;;;;;;;;;;;;;;;5049220;28;19928;-60
2021/10/23 03:42:20;;;;;;;;;;;;;;;;;;5045139;28;19944;-58
2021/10/23 03:44:47;;;;;;;;;;;;;;;;;;5067573;22;19925;-67
2021/10/23 03:47:16;;;;;;;;;;;;;;;;;;5055466;28;19925;-67
2021/10/23 03:49:43;;;;;;;;;;;;;;;;;;5059596;28;19925;-66
2021/10/23 03:52:10;;;;;;;;;;;;;;;;;;5047377;28;20015;-66
2021/10/23 03:54:38;;;;;;;;;;;;;;;;;;5051871;28;19928;-66
2021/10/23 03:57:05;;;;;;;;;;;;;;;;;;5054688;28;20288;-66
2021/10/23 03:59:32;;;;;;;;;;;;;;;;;;5049085;28;19925;-66
2021/10/23 04:01:59;;;;;;;;;;;;;;;;;;5053429;28;20292;-66
2021/10/23 04:04:26;;;;;;;;;;;;;;;;;;5053772;28;20340;-69
2021/10/23 04:06:54;;;;;;;;;;;;;;;;;;5051213;28;19980;-66
2021/10/23 04:09:21;;;;;;;;;;;;;;;;;;5052244;28;19986;-67
2021/10/23 04:11:47;;;;;;;;;;;;;;;;;;5054938;28;19925;-66
2021/10/23 04:14:14;;;;;;;;;;;;;;;;;;5052984;28;19925;-67
2021/10/23 04:16:41;;;;;;;;;;;;;;;;;;5052190;28;19932;-66
2021/10/23 04:19:08;;;;;;;;;;;;;;;;;;5055229;28;19925;-68
2021/10/23 04:21:35;;;;;;;;;;;;;;;;;;5054031;28;19929;-67
2021/10/23 04:24:02;;;;;;;;;;;;;;;;;;5051897;28;19933;-67
2021/10/23 04:26:29;;;;;;;;;;;;;;;;;;5051768;28;19924;-67
2021/10/23 04:28:56;;;;;;;;;;;;;;;;;;5053436;28;20068;-67
2021/10/23 04:31:23;;;;;;;;;;;;;;;;;;5057606;28;19932;-67
2021/10/23 04:33:50;;;;;;;;;;;;;;;;;;5058181;28;20431;-67
2021/10/23 04:36:17;;;;;;;;;;;;;;;;;;5054032;28;19931;-67
2021/10/23 04:38:44;;;;;;;;;;;;;;;;;;5052391;28;19925;-67
2021/10/23 04:41:11;;;;;;;;;;;;;;;;;;5051200;28;19932;-67
2021/10/23 04:43:38;;;;;;;;;;;;;;;;;;5052578;28;20476;-67
2021/10/23 04:46:05;;;;;;;;;;;;;;;;;;5052228;28;20307;-67
2021/10/23 04:48:32;;;;;;;;;;;;;;;;;;5050273;28;19925;-67
2021/10/23 04:50:59;;;;;;;;;;;;;;;;;;5053109;28;19932;-67
2021/10/23 04:53:26;;;;;;;;;;;;;;;;;;5056713;28;20277;-67
2021/10/23 04:55:53;;;;;;;;;;;;;;;;;;5050514;28;20020;-66
2021/10/23 04:58:20;;;;;;;;;;;;;;;;;;5056879;28;20171;-68
2021/10/23 05:00:47;;;;;;;;;;;;;;;;;;5050901;28;19924;-66
2021/10/23 05:03:14;;;;;;;;;;;;;;;;;;5051166;28;19959;-66
2021/10/23 05:05:41;;;;;;;;;;;;;;;;;;5053177;28;20300;-66
2021/10/23 05:08:08;;;;;;;;;;;;;;;;;;5053040;28;20019;-66
2021/10/23 05:10:35;;;;;;;;;;;;;;;;;;5052854;28;19929;-66
2021/10/23 05:13:02;;;;;;;;;;;;;;;;;;5056182;28;19951;-66
2021/10/23 05:15:28;;;;;;;;;;;;;;;;;;5057554;28;20307;-66
2021/10/23 05:17:55;;;;;;;;;;;;;;;;;;5051022;28;20373;-66
2021/10/23 05:20:22;;;;;;;;;;;;;;;;;;5051581;28;20295;-66
2021/10/23 05:22:49;;;;;;;;;;;;;;;;;;5048275;28;19956;-66
2021/10/23 05:25:16;;;;;;;;;;;;;;;;;;5050389;28;19931;-66
2021/10/23 05:27:43;;;;;;;;;;;;;;;;;;5052396;28;20296;-66
2021/10/23 05:30:11;;;;;;;;;;;;;;;;;;5051406;28;20415;-66
2021/10/23 05:32:38;;;;;;;;;;;;;;;;;;5059581;28;19924;-66
2021/10/23 05:35:05;;;;;;;;;;;;;;;;;;5053628;28;19924;-66
2021/10/23 05:37:32;;;;;;;;;;;;;;;;;;5053044;28;19925;-66
2021/10/23 05:39:59;;;;;;;;;;;;;;;;;;5048501;28;19936;-66
2021/10/23 05:42:26;;;;;;;;;;;;;;;;;;5049541;28;19929;-68
2021/10/23 05:44:53;;;;;;;;;;;;;;;;;;5050370;28;19939;-66
2021/10/23 05:47:19;;;;;;;;;;;;;;;;;;5056894;28;19931;-66
2021/10/23 05:49:46;;;;;;;;;;;;;;;;;;5056687;28;20308;-67
2021/10/23 05:52:13;;;;;;;;;;;;;;;;;;5061123;28;19925;-68
2021/10/23 05:54:40;;;;;;;;;;;;;;;;;;5069450;28;19932;-68
2021/10/23 05:57:07;;;;;;;;;;;;;;;;;;5055261;28;19925;-68
2021/10/23 05:59:36;;;;;;;;;;;;;;;;;;5053602;28;21145;-68
2021/10/23 06:02:21;;;;;;;;;;;;;;;;;;5054108;28;19972;-68
2021/10/23 06:04:47;;;;;;;;;;;;;;;;;;5054264;28;19925;-67
2021/10/23 06:07:14;;;;;;;;;;;;;;;;;;5052748;28;19932;-67
2021/10/23 06:09:41;;;;;;;;;;;;;;;;;;5057967;28;19935;-68
2021/10/23 06:12:08;;;;;;;;;;;;;;;;;;5055789;28;19925;-68
2021/10/23 06:14:35;;;;;;;;;;;;;;;;;;5059196;28;20026;-67
2021/10/23 06:17:02;;;;;;;;;;;;;;;;;;5054469;28;19939;-68
2021/10/23 06:19:29;;;;;;;;;;;;;;;;;;5056194;28;19929;-67
2021/10/23 06:21:56;;;;;;;;;;;;;;;;;;5052947;28;20253;-68
2021/10/23 06:24:23;;;;;;;;;;;;;;;;;;5054696;28;19925;-67
2021/10/23 06:26:50;;;;;;;;;;;;;;;;;;5058375;28;19924;-68
2021/10/23 06:29:17;;;;;;;;;;;;;;;;;;5051636;28;19943;-68
2021/10/23 06:31:44;;;;;;;;;;;;;;;;;;5059364;28;20400;-68
2021/10/23 06:34:11;;;;;;;;;;;;;;;;;;5054071;28;19932;-68
2021/10/23 06:36:38;;;;;;;;;;;;;;;;;;5050823;28;20246;-68
2021/10/23 06:39:05;;;;;;;;;;;;;;;;;;5050892;28;19964;-68
2021/10/23 06:41:35;;;;;;;;;;;;;;;;;;5055218;28;19929;-68
2021/10/23 06:44:02;;;;;;;;;;;;;;;;;;5052175;28;19932;-68
2021/10/23 06:46:30;;;;;;;;;;;;;;;;;;5052584;28;19950;-68
2021/10/23 06:48:56;;;;;;;;;;;;;;;;;;5051176;28;19924;-68
2021/10/23 06:51:23;;;;;;;;;;;;;;;;;;5056690;28;19932;-68
2021/10/23 06:53:54;;;;;;;;;;;;;;;;;;5046377;28;19925;-68
2021/10/23 06:56:21;;;;;;;;;;;;;;;;;;5057680;28;19929;-68
2021/10/23 06:58:48;;;;;;;;;;;;;;;;;;5050698;28;20023;-68
2021/10/23 07:01:14;;;;;;;;;;;;;;;;;;5051449;28;19925;-68
2021/10/23 07:03:41;;;;;;;;;;;;;;;;;;5051464;28;19972;-68
2021/10/23 07:06:08;;;;;;;;;;;;;;;;;;5052792;28;19929;-68
2021/10/23 07:08:35;;;;;;;;;;;;;;;;;;5050719;28;20016;-68
2021/10/23 07:11:02;;;;;;;;;;;;;;;;;;5060587;28;19924;-68
2021/10/23 07:13:29;;;;;;;;;;;;;;;;;;5051051;28;20378;-68
2021/10/23 07:15:56;;;;;;;;;;;;;;;;;;5056310;28;19959;-68
2021/10/23 07:18:23;;;;;;;;;;;;;;;;;;5053950;28;20086;-68
2021/10/23 07:20:50;;;;;;;;;;;;;;;;;;5053703;28;19932;-68
2021/10/23 07:23:17;;;;;;;;;;;;;;;;;;5051342;28;20011;-68
2021/10/23 07:25:46;;;;;;;;;;;;;;;;;;5052954;28;19924;-68
2021/10/23 07:28:13;;;;;;;;;;;;;;;;;;5053106;28;19925;-68
2021/10/23 07:30:40;;;;;;;;;;;;;;;;;;5044480;28;20032;-68
2021/10/23 07:33:07;;;;;;;;;;;;;;;;;;5044781;28;19975;-68
2021/10/23 07:35:34;;;;;;;;;;;;;;;;;;5049204;28;19931;-68
2021/10/23 07:38:01;;;;;;;;;;;;;;;;;;5050693;28;19929;-68
2021/10/23 07:40:28;;;;;;;;;;;;;;;;;;5053009;28;19931;-68
2021/10/23 07:42:55;;;;;;;;;;;;;;;;;;5048596;28;20388;-68
2021/10/23 07:45:22;;;;;;;;;;;;;;;;;;5047874;28;20041;-68
2021/10/23 07:47:49;;;;;;;;;;;;;;;;;;5050571;28;19925;-68
2021/10/23 07:50:16;;;;;;;;;;;;;;;;;;5053661;28;19924;-68
2021/10/23 07:52:44;;;;;;;;;;;;;;;;;;5050691;28;19925;-68
2021/10/23 07:55:11;;;;;;;;;;;;;;;;;;5049786;28;20331;-68
2021/10/23 07:57:38;;;;;;;;;;;;;;;;;;5052538;28;20304;-68
2021/10/23 08:00:05;;;;;;;;;;;;;;;;;;5051333;28;19925;-68
2021/10/23 08:02:32;;;;;;;;;;;;;;;;;;5053164;28;19932;-68
2021/10/23 08:04:59;;;;;;;;;;;;;;;;;;5053906;28;19924;-66
2021/10/23 08:07:26;;;;;;;;;;;;;;;;;;5048240;28;19933;-66
2021/10/23 08:09:54;;;;;;;;;;;;;;;;;;5051133;28;19931;-66
2021/10/23 08:12:21;;;;;;;;;;;;;;;;;;5050250;28;19944;-67
2021/10/23 08:14:48;;;;;;;;;;;;;;;;;;5048282;28;19924;-67
2021/10/23 08:17:15;;;;;;;;;;;;;;;;;;5046658;28;19932;-68
2021/10/23 08:19:42;;;;;;;;;;;;;;;;;;5051678;28;20385;-69
2021/10/23 08:22:09;;;;;;;;;;;;;;;;;;5054371;28;19925;-66
2021/10/23 08:24:36;;;;;;;;;;;;;;;;;;5055673;28;19936;-66
2021/10/23 08:27:03;;;;;;;;;;;;;;;;;;5053534;28;20392;-66
2021/10/23 08:29:30;;;;;;;;;;;;;;;;;;5052789;28;19929;-68
2021/10/23 08:31:57;;;;;;;;;;;;;;;;;;5054945;28;19971;-66
2021/10/23 08:34:24;;;;;;;;;;;;;;;;;;5055421;28;19924;-67
2021/10/23 08:36:51;;;;;;;;;;;;;;;;;;5058084;28;19928;-67
2021/10/23 08:39:18;;;;;;;;;;;;;;;;;;5050186;28;20347;-67
2021/10/23 08:41:45;;;;;;;;;;;;;;;;;;5051102;28;19984;-67
2021/10/23 08:44:12;;;;;;;;;;;;;;;;;;5050250;28;20298;-67
2021/10/23 08:46:40;;;;;;;;;;;;;;;;;;5048300;28;19932;-67
2021/10/23 08:49:07;;;;;;;;;;;;;;;;;;5045394;28;20327;-67
2021/10/23 08:51:34;;;;;;;;;;;;;;;;;;5061426;28;20047;-67
2021/10/23 08:54:01;;;;;;;;;;;;;;;;;;5052244;28;19940;-67
2021/10/23 08:56:28;;;;;;;;;;;;;;;;;;5053317;28;20028;-67
2021/10/23 08:58:55;;;;;;;;;;;;;;;;;;5051006;28;19932;-67
2021/10/23 09:01:22;;;;;;;;;;;;;;;;;;5049718;28;20023;-67
2021/10/23 09:03:49;;;;;;;;;;;;;;;;;;5055272;28;19924;-67
2021/10/23 09:06:16;;;;;;;;;;;;;;;;;;5055066;28;20480;-67
2021/10/23 09:08:43;;;;;;;;;;;;;;;;;;5051134;28;19924;-67
2021/10/23 09:11:10;;;;;;;;;;;;;;;;;;5051525;28;19925;-68
2021/10/23 09:13:37;;;;;;;;;;;;;;;;;;5045801;28;20058;-65
2021/10/23 09:16:04;;;;;;;;;;;;;;;;;;5050807;28;19924;-66
2021/10/23 09:18:31;;;;;;;;;;;;;;;;;;5053829;28;19939;-66
2021/10/23 09:20:58;;;;;;;;;;;;;;;;;;5049720;28;20100;-67
2021/10/23 09:23:25;;;;;;;;;;;;;;;;;;5053238;28;20003;-67
2021/10/23 09:25:52;;;;;;;;;;;;;;;;;;5051856;28;19931;-67
2021/10/23 09:28:20;;;;;;;;;;;;;;;;;;5061409;28;19932;-67
2021/10/23 09:30:47;;;;;;;;;;;;;;;;;;5055641;28;19939;-67
2021/10/23 09:33:14;;;;;;;;;;;;;;;;;;5053133;28;19925;-67
2021/10/23 09:35:41;;;;;;;;;;;;;;;;;;5048508;28;20292;-67
2021/10/23 09:38:07;;;;;;;;;;;;;;;;;;5050795;28;20023;-67
2021/10/23 09:40:34;;;;;;;;;;;;;;;;;;5045514;28;19940;-67
2021/10/23 09:43:01;;;;;;;;;;;;;;;;;;5006862;22;1804947;-59
2021/10/23 09:45:28;;;;;;;;;;;;;;;;;;5057861;28;20012;-60
2021/10/23 09:47:55;;;;;;;;;;;;;;;;;;5057213;28;19931;-58
2021/10/23 09:50:22;;;;;;;;;;;;;;;;;;5053885;28;20288;-57
2021/10/23 09:52:49;;;;;;;;;;;;;;;;;;5055257;28;19931;-59
2021/10/23 09:55:16;;;;;;;;;;;;;;;;;;5055294;28;19968;-59
2021/10/23 09:57:43;;;;;;;;;;;;;;;;;;5054302;28;20308;-58
2021/10/23 10:00:11;;;;;;;;;;;;;;;;;;5059421;28;19925;-58
2021/10/23 10:02:38;;;;;;;;;;;;;;;;;;5058172;28;19943;-58
2021/10/23 10:05:05;;;;;;;;;;;;;;;;;;5051963;28;19925;-58
2021/10/23 10:07:32;;;;;;;;;;;;;;;;;;5055676;28;19959;-59
2021/10/23 10:09:59;;;;;;;;;;;;;;;;;;5058824;28;19931;-59
2021/10/23 10:12:26;;;;;;;;;;;;;;;;;;5055390;28;19925;-58
2021/10/23 10:14:52;;;;;;;;;;;;;;;;;;5056884;28;20359;-59
2021/10/23 10:17:19;;;;;;;;;;;;;;;;;;5059486;28;19929;-60
2021/10/23 10:19:46;;;;;;;;;;;;;;;;;;5058946;28;20007;-59
2021/10/23 10:22:13;;;;;;;;;;;;;;;;;;5057577;28;20281;-60
2021/10/23 10:24:41;;;;;;;;;;;;;;;;;;5061150;28;19925;-60
2021/10/23 10:27:09;;;;;;;;;;;;;;;;;;5058934;28;19963;-61
2021/10/23 10:29:38;;;;;;;;;;;;;;;;;;5051971;28;19925;-60
2021/10/23 10:32:09;;;;;;;;;;;;;;;;;;5058491;28;19931;-60
2021/10/23 10:34:36;;;;;;;;;;;;;;;;;;5057672;28;19929;-59
2021/10/23 10:37:11;;;;;;;;;;;;;;;;;;5051803;28;19931;-65
2021/10/23 10:39:39;;;;;;;;;;;;;;;;;;5049403;28;19929;-62
2021/10/23 10:44:51;;;;;;;;;;;;;;;;;;5048317;28;19931;-67
2021/10/23 10:47:18;;;;;;;;;;;;;;;;;;5052644;28;19933;-60
2021/10/23 10:49:50;;;;;;;;;;;;;;;;;;5052265;28;20323;-60
2021/10/23 10:52:17;;;;;;;;;;;;;;;;;;5059766;28;19964;-59
2021/10/23 10:54:44;;;;;;;;;;;;;;;;;;5054541;28;19925;-60
2021/10/23 10:57:10;;;;;;;;;;;;;;;;;;5054227;28;19925;-60
2021/10/23 10:59:37;;;;;;;;;;;;;;;;;;5056170;28;20035;-59
2021/10/23 11:02:04;;;;;;;;;;;;;;;;;;5051483;28;20015;-60
2021/10/23 11:04:31;;;;;;;;;;;;;;;;;;5056349;28;20909;-58
2021/10/23 11:06:58;;;;;;;;;;;;;;;;;;5055740;28;19936;-61
2021/10/23 11:09:30;;;;;;;;;;;;;;;;;;5054835;28;19925;-60
2021/10/23 11:11:57;;;;;;;;;;;;;;;;;;5053341;28;19935;-61
2021/10/23 11:14:24;;;;;;;;;;;;;;;;;;5055760;28;19925;-59
2021/10/23 11:16:51;;;;;;;;;;;;;;;;;;5054618;28;19925;-60
2021/10/23 11:19:18;;;;;;;;;;;;;;;;;;5054267;28;19929;-60
2021/10/23 11:21:45;;;;;;;;;;;;;;;;;;5057451;28;19925;-59
2021/10/23 11:24:12;;;;;;;;;;;;;;;;;;5058401;28;20159;-60
2021/10/23 11:26:39;;;;;;;;;;;;;;;;;;5056570;28;19932;-58
2021/10/23 11:29:06;;;;;;;;;;;;;;;;;;5058810;28;19924;-60
2021/10/23 11:31:33;;;;;;;;;;;;;;;;;;5059129;28;20389;-59
2021/10/23 11:34:00;;;;;;;;;;;;;;;;;;5052735;28;19929;-59
2021/10/23 11:36:27;;;;;;;;;;;;;;;;;;5053184;28;19925;-60
2021/10/23 11:38:54;;;;;;;;;;;;;;;;;;5053158;28;19935;-60
2021/10/23 11:41:21;;;;;;;;;;;;;;;;;;5052547;28;19925;-60
2021/10/23 11:43:48;;;;;;;;;;;;;;;;;;5055538;28;19925;-58
2021/10/23 11:46:15;;;;;;;;;;;;;;;;;;5060520;28;20446;-60
2021/10/23 11:48:42;;;;;;;;;;;;;;;;;;5058317;28;19935;-60
2021/10/23 11:51:09;;;;;;;;;;;;;;;;;;5056247;28;19935;-59
2021/10/23 11:53:36;;;;;;;;;;;;;;;;;;5059207;28;20283;-58
2021/10/23 11:56:03;;;;;;;;;;;;;;;;;;5053376;28;19932;-59
2021/10/23 11:58:30;;;;;;;;;;;;;;;;;;5055621;28;19925;-59
2021/10/23 12:00:57;;;;;;;;;;;;;;;;;;5052040;28;19975;-57
2021/10/23 12:03:24;;;;;;;;;;;;;;;;;;5051410;28;20448;-58
2021/10/23 12:05:51;;;;;;;;;;;;;;;;;;5051846;28;19931;-60
2021/10/23 12:08:18;;;;;;;;;;;;;;;;;;5053190;28;19984;-58
2021/10/23 12:10:45;;;;;;;;;;;;;;;;;;5051637;28;20464;-61
2021/10/23 12:13:12;;;;;;;;;;;;;;;;;;5056433;28;19931;-60
2021/10/23 12:15:39;;;;;;;;;;;;;;;;;;5055805;28;19936;-61
2021/10/23 12:18:07;;;;;;;;;;;;;;;;;;5056578;28;19931;-60
2021/10/23 12:20:34;;;;;;;;;;;;;;;;;;5057403;28;20425;-56
2021/10/23 12:23:01;;;;;;;;;;;;;;;;;;5048836;28;19992;-56
2021/10/23 12:25:28;;;;;;;;;;;;;;;;;;5059584;28;19925;-59
2021/10/23 12:27:55;;;;;;;;;;;;;;;;;;5054261;28;19932;-59
2021/10/23 12:30:22;;;;;;;;;;;;;;;;;;5053059;28;19932;-59
2021/10/23 12:32:49;;;;;;;;;;;;;;;;;;5051772;28;19928;-60
2021/10/23 12:35:16;;;;;;;;;;;;;;;;;;5055477;28;20446;-60
2021/10/23 12:37:43;;;;;;;;;;;;;;;;;;5058363;28;19925;-59
2021/10/23 12:40:10;;;;;;;;;;;;;;;;;;5058762;28;19925;-60
2021/10/23 12:42:37;;;;;;;;;;;;;;;;;;5057039;28;19939;-60
2021/10/23 12:45:04;;;;;;;;;;;;;;;;;;5059531;28;19987;-58
2021/10/23 12:47:31;;;;;;;;;;;;;;;;;;5061581;28;19924;-60
2021/10/23 12:49:58;;;;;;;;;;;;;;;;;;5054419;28;19929;-58
2021/10/23 12:52:25;;;;;;;;;;;;;;;;;;5055415;28;20373;-60
2021/10/23 12:54:52;;;;;;;;;;;;;;;;;;5055028;28;19976;-60
2021/10/23 12:57:19;;;;;;;;;;;;;;;;;;5060805;28;19932;-59
2021/10/23 12:59:46;;;;;;;;;;;;;;;;;;5060141;28;19925;-60
2021/10/23 13:02:13;;;;;;;;;;;;;;;;;;5054939;28;19925;-60
2021/10/23 13:04:42;;;;;;;;;;;;;;;;;;5053761;28;19925;-60
2021/10/23 13:07:09;;;;;;;;;;;;;;;;;;5058304;28;19928;-60
2021/10/23 13:09:36;;;;;;;;;;;;;;;;;;5055428;28;19924;-60
2021/10/23 13:12:03;;;;;;;;;;;;;;;;;;5061288;28;20395;-60
2021/10/23 13:14:30;;;;;;;;;;;;;;;;;;5058681;28;19925;-58
2021/10/23 13:16:57;;;;;;;;;;;;;;;;;;5060630;28;19964;-60
2021/10/23 13:19:24;;;;;;;;;;;;;;;;;;5048850;28;19956;-59
2021/10/23 13:21:51;;;;;;;;;;;;;;;;;;5058680;28;19929;-58
2021/10/23 13:24:18;;;;;;;;;;;;;;;;;;5056625;28;21481;-58
2021/10/23 13:26:45;;;;;;;;;;;;;;;;;;5059715;28;19925;-59
2021/10/23 13:29:12;;;;;;;;;;;;;;;;;;5059001;28;19971;-60
2021/10/23 13:31:39;;;;;;;;;;;;;;;;;;5058488;28;19991;-57
2021/10/23 13:34:06;;;;;;;;;;;;;;;;;;5056826;28;20012;-57
2021/10/23 13:36:33;;;;;;;;;;;;;;;;;;5056824;28;19931;-60
2021/10/23 13:39:00;;;;;;;;;;;;;;;;;;5058725;28;19932;-60
2021/10/23 13:41:26;;;;;;;;;;;;;;;;;;5056814;28;20004;-59
2021/10/23 13:43:53;;;;;;;;;;;;;;;;;;5054910;28;19996;-60
2021/10/23 13:46:20;;;;;;;;;;;;;;;;;;5051476;28;19932;-58
2021/10/23 13:48:47;;;;;;;;;;;;;;;;;;5047697;28;19933;-60
2021/10/23 13:51:14;;;;;;;;;;;;;;;;;;5049662;28;20027;-58
2021/10/23 13:53:41;;;;;;;;;;;;;;;;;;5054094;28;19924;-55
2021/10/23 13:56:08;;;;;;;;;;;;;;;;;;5054914;28;20395;-56
2021/10/23 13:58:35;;;;;;;;;;;;;;;;;;5052694;28;20266;-58
2021/10/23 14:01:02;;;;;;;;;;;;;;;;;;5052438;28;19933;-55
2021/10/23 14:03:29;;;;;;;;;;;;;;;;;;5054570;28;20305;-55
2021/10/23 14:05:56;;;;;;;;;;;;;;;;;;5053227;28;20019;-53
2021/10/23 14:08:23;;;;;;;;;;;;;;;;;;5057243;28;20024;-54
2021/10/23 14:10:50;;;;;;;;;;;;;;;;;;5054616;28;19935;-60
2021/10/23 14:13:17;;;;;;;;;;;;;;;;;;5057326;28;19929;-58
2021/10/23 14:15:44;;;;;;;;;;;;;;;;;;5058573;28;19929;-59
2021/10/23 14:18:13;;;;;;;;;;;;;;;;;;5058377;28;19947;-57
2021/10/23 14:20:40;;;;;;;;;;;;;;;;;;5054597;28;19956;-60
2021/10/23 14:23:10;;;;;;;;;;;;;;;;;;5053116;28;19948;-60
2021/10/23 14:25:37;;;;;;;;;;;;;;;;;;5057007;28;20752;-58
2021/10/23 14:28:11;;;;;;;;;;;;;;;;;;5057395;28;19925;-60
2021/10/23 14:30:38;;;;;;;;;;;;;;;;;;5056942;28;19932;-60
2021/10/23 14:33:05;;;;;;;;;;;;;;;;;;5053282;28;19996;-61
2021/10/23 14:35:32;;;;;;;;;;;;;;;;;;5054243;28;20048;-60
2021/10/23 14:37:59;;;;;;;;;;;;;;;;;;5055189;28;19935;-60
2021/10/23 14:40:26;;;;;;;;;;;;;;;;;;5057628;28;19924;-60
2021/10/23 14:42:53;;;;;;;;;;;;;;;;;;5059172;28;20293;-61
2021/10/23 14:45:20;;;;;;;;;;;;;;;;;;5056178;28;19929;-67
2021/10/23 14:47:46;;;;;;;;;;;;;;;;;;5059990;28;19984;-57
2021/10/23 14:50:13;;;;;;;;;;;;;;;;;;5057938;28;19924;-59
2021/10/23 14:52:40;;;;;;;;;;;;;;;;;;5060394;28;19933;-59
2021/10/23 14:55:07;;;;;;;;;;;;;;;;;;5058262;28;19988;-59
2021/10/23 14:57:34;;;;;;;;;;;;;;;;;;5054700;28;19926;-60
2021/10/23 15:00:01;;;;;;;;;;;;;;;;;;5058143;28;19999;-58
2021/10/23 15:02:28;;;;;;;;;;;;;;;;;;5057065;28;20002;-59
2021/10/23 15:04:55;;;;;;;;;;;;;;;;;;5058158;28;19929;-60
2021/10/23 15:07:22;;;;;;;;;;;;;;;;;;5058838;28;20370;-61
2021/10/23 15:09:49;;;;;;;;;;;;;;;;;;5057461;28;19924;-59
2021/10/23 15:12:17;;;;;;;;;;;;;;;;;;5058688;28;20119;-63
2021/10/23 15:14:44;;;;;;;;;;;;;;;;;;5059070;28;19931;-60
2021/10/23 15:17:11;;;;;;;;;;;;;;;;;;5058850;28;19988;-61
2021/10/23 15:19:38;;;;;;;;;;;;;;;;;;5060402;28;19929;-59
2021/10/23 15:22:05;;;;;;;;;;;;;;;;;;5058292;28;19929;-59
2021/10/23 15:24:32;;;;;;;;;;;;;;;;;;5056502;28;20027;-61
2021/10/23 15:26:59;;;;;;;;;;;;;;;;;;5050096;28;19948;-59
2021/10/23 15:29:26;;;;;;;;;;;;;;;;;;5059413;28;19936;-61
2021/10/23 15:31:53;;;;;;;;;;;;;;;;;;5055222;28;19929;-60
2021/10/23 15:34:20;;;;;;;;;;;;;;;;;;5052125;28;20015;-60
2021/10/23 15:36:47;;;;;;;;;;;;;;;;;;5051771;28;19931;-61
2021/10/23 15:39:15;;;;;;;;;;;;;;;;;;5052318;28;19929;-61
2021/10/23 15:41:48;;;;;;;;;;;;;;;;;;5053778;28;20020;-61
2021/10/23 15:44:15;;;;;;;;;;;;;;;;;;5062902;22;20487;-67
2021/10/23 15:46:42;;;;;;;;;;;;;;;;;;5042580;28;20273;-68
2021/10/23 15:49:13;;;;;;;;;;;;;;;;;;5046218;28;19983;-68
2021/10/23 15:51:40;;;;;;;;;;;;;;;;;;5048966;28;19928;-69
2021/10/23 15:54:07;;;;;;;;;;;;;;;;;;5045117;28;19976;-69
2021/10/23 15:56:34;;;;;;;;;;;;;;;;;;5040978;28;19999;-69
2021/10/23 15:59:01;;;;;;;;;;;;;;;;;;5045551;28;19932;-69
2021/10/23 16:01:28;;;;;;;;;;;;;;;;;;5045408;28;20029;-67
2021/10/23 16:03:55;;;;;;;;;;;;;;;;;;5043299;28;19933;-66
2021/10/23 16:06:22;;;;;;;;;;;;;;;;;;5044138;28;19932;-67
2021/10/23 16:08:49;;;;;;;;;;;;;;;;;;5046374;28;19971;-66
2021/10/23 16:11:16;;;;;;;;;;;;;;;;;;5046500;28;20372;-67
2021/10/23 16:13:44;;;;;;;;;;;;;;;;;;5045927;28;20286;-67
2021/10/23 16:16:11;;;;;;;;;;;;;;;;;;5045600;28;19933;-69
2021/10/23 16:18:38;;;;;;;;;;;;;;;;;;5046607;28;20404;-69
2021/10/23 16:21:06;;;;;;;;;;;;;;;;;;5045379;28;19925;-70
2021/10/23 16:23:33;;;;;;;;;;;;;;;;;;5046169;28;19931;-69
2021/10/23 16:26:00;;;;;;;;;;;;;;;;;;5043595;28;20388;-68
2021/10/23 16:28:27;;;;;;;;;;;;;;;;;;5040920;28;19929;-66
2021/10/23 16:30:54;;;;;;;;;;;;;;;;;;5050853;28;19940;-67
2021/10/23 16:33:22;;;;;;;;;;;;;;;;;;5043373;28;19931;-67
2021/10/23 16:35:49;;;;;;;;;;;;;;;;;;5047108;28;19933;-67
2021/10/23 16:38:16;;;;;;;;;;;;;;;;;;5046041;28;20363;-67
2021/10/23 16:40:43;;;;;;;;;;;;;;;;;;5047751;28;19929;-67
2021/10/23 16:43:10;;;;;;;;;;;;;;;;;;5046729;28;20296;-69
2021/10/23 16:45:37;;;;;;;;;;;;;;;;;;5044703;28;20292;-68
2021/10/23 16:48:04;;;;;;;;;;;;;;;;;;5047537;28;20019;-67